sensor_id;sensor_type;location;lat;lon;timestamp;P1;durP1;ratioP1;P2;durP2;ratioP2
28007;SDS011;15333;50.010;20.020;2024-02-04T00:01:00;8.02;;;4.95;;
28007;SDS011;15333;50.010;20.020;2024-02-04T00:04:21;7.28;;;5.03;;
28007;SDS011;15333;50.010;20.020;2024-02-04T00:07:23;8.65;;;5.05;;
28007;SDS011;15333;50.010;20.020;2024-02-04T00:10:25;6.35;;;4.75;;
28007;SDS011;15333;50.010;20.020;2024-02-04T00:13:27;7.55;;;6.03;;
28007;SDS011;15333;50.010;20.020;2024-02-04T00:16:28;9.10;;;6.28;;
28007;SDS011;15333;50.010;20.020;2024-02-04T00:19:29;9.57;;;6.50;;
28007;SDS011;15333;50.010;20.020;2024-02-04T00:22:30;10.65;;;6.68;;
28007;SDS011;15333;50.010;20.020;2024-02-04T00:25:34;9.10;;;6.55;;
28007;SDS011;15333;50.010;20.020;2024-02-04T00:28:35;11.00;;;6.20;;
28007;SDS011;15333;50.010;20.020;2024-02-04T00:31:36;11.98;;;7.35;;
28007;SDS011;15333;50.010;20.020;2024-02-04T00:34:37;7.95;;;5.85;;
28007;SDS011;15333;50.010;20.020;2024-02-04T00:37:37;11.88;;;6.82;;
28007;SDS011;15333;50.010;20.020;2024-02-04T00:40:38;10.63;;;7.43;;
28007;SDS011;15333;50.010;20.020;2024-02-04T00:43:39;10.23;;;7.30;;
28007;SDS011;15333;50.010;20.020;2024-02-04T00:46:40;9.15;;;6.53;;
28007;SDS011;15333;50.010;20.020;2024-02-04T00:49:41;7.40;;;5.95;;
28007;SDS011;15333;50.010;20.020;2024-02-04T00:52:42;8.15;;;5.80;;
28007;SDS011;15333;50.010;20.020;2024-02-04T00:55:43;6.40;;;5.00;;
28007;SDS011;15333;50.010;20.020;2024-02-04T00:58:44;7.55;;;5.30;;
28007;SDS011;15333;50.010;20.020;2024-02-04T01:01:45;9.45;;;5.22;;
28007;SDS011;15333;50.010;20.020;2024-02-04T01:04:46;7.20;;;5.43;;
28007;SDS011;15333;50.010;20.020;2024-02-04T01:07:46;6.90;;;4.93;;
28007;SDS011;15333;50.010;20.020;2024-02-04T01:10:48;7.30;;;5.57;;
28007;SDS011;15333;50.010;20.020;2024-02-04T01:13:51;8.10;;;5.57;;
28007;SDS011;15333;50.010;20.020;2024-02-04T01:16:52;6.55;;;5.80;;
28007;SDS011;15333;50.010;20.020;2024-02-04T01:19:52;8.20;;;6.05;;
28007;SDS011;15333;50.010;20.020;2024-02-04T01:22:54;9.07;;;7.43;;
28007;SDS011;15333;50.010;20.020;2024-02-04T01:25:54;9.63;;;7.53;;
28007;SDS011;15333;50.010;20.020;2024-02-04T01:28:55;9.27;;;6.72;;
28007;SDS011;15333;50.010;20.020;2024-02-04T01:31:56;8.70;;;6.95;;
28007;SDS011;15333;50.010;20.020;2024-02-04T01:34:57;9.90;;;7.28;;
28007;SDS011;15333;50.010;20.020;2024-02-04T01:37:58;13.35;;;7.32;;
28007;SDS011;15333;50.010;20.020;2024-02-04T01:40:59;10.80;;;7.90;;
28007;SDS011;15333;50.010;20.020;2024-02-04T01:43:59;9.48;;;6.88;;
28007;SDS011;15333;50.010;20.020;2024-02-04T01:47:00;9.75;;;7.35;;
28007;SDS011;15333;50.010;20.020;2024-02-04T01:50:02;8.98;;;7.30;;
28007;SDS011;15333;50.010;20.020;2024-02-04T01:53:04;13.88;;;8.02;;
28007;SDS011;15333;50.010;20.020;2024-02-04T01:56:05;15.73;;;8.25;;
28007;SDS011;15333;50.010;20.020;2024-02-04T01:59:06;10.02;;;8.80;;
28007;SDS011;15333;50.010;20.020;2024-02-04T02:02:07;13.43;;;9.40;;
28007;SDS011;15333;50.010;20.020;2024-02-04T02:05:08;13.63;;;10.20;;
28007;SDS011;15333;50.010;20.020;2024-02-04T02:08:09;14.65;;;11.30;;
28007;SDS011;15333;50.010;20.020;2024-02-04T02:11:14;14.18;;;11.07;;
28007;SDS011;15333;50.010;20.020;2024-02-04T02:14:23;14.25;;;11.68;;
28007;SDS011;15333;50.010;20.020;2024-02-04T02:17:31;13.93;;;11.90;;
28007;SDS011;15333;50.010;20.020;2024-02-04T02:24:31;18.35;;;13.30;;
28007;SDS011;15333;50.010;20.020;2024-02-04T02:27:33;16.30;;;12.65;;
28007;SDS011;15333;50.010;20.020;2024-02-04T02:30:34;15.27;;;11.88;;
28007;SDS011;15333;50.010;20.020;2024-02-04T02:33:35;16.77;;;13.25;;
28007;SDS011;15333;50.010;20.020;2024-02-04T02:36:39;14.48;;;11.45;;
28007;SDS011;15333;50.010;20.020;2024-02-04T02:40:02;13.18;;;11.25;;
28007;SDS011;15333;50.010;20.020;2024-02-04T02:43:11;15.18;;;12.13;;
28007;SDS011;15333;50.010;20.020;2024-02-04T02:46:13;14.70;;;12.73;;
28007;SDS011;15333;50.010;20.020;2024-02-04T02:49:14;15.52;;;12.60;;
28007;SDS011;15333;50.010;20.020;2024-02-04T02:52:15;12.20;;;10.68;;
28007;SDS011;15333;50.010;20.020;2024-02-04T02:55:16;12.57;;;10.95;;
28007;SDS011;15333;50.010;20.020;2024-02-04T02:58:17;12.63;;;10.20;;
28007;SDS011;15333;50.010;20.020;2024-02-04T03:01:18;12.40;;;10.18;;
28007;SDS011;15333;50.010;20.020;2024-02-04T03:04:19;11.55;;;10.23;;
28007;SDS011;15333;50.010;20.020;2024-02-04T03:07:19;12.13;;;10.13;;
28007;SDS011;15333;50.010;20.020;2024-02-04T03:10:20;11.38;;;9.43;;
28007;SDS011;15333;50.010;20.020;2024-02-04T03:13:21;10.35;;;9.25;;
28007;SDS011;15333;50.010;20.020;2024-02-04T03:16:22;8.32;;;7.22;;
28007;SDS011;15333;50.010;20.020;2024-02-04T03:19:23;7.60;;;6.35;;
28007;SDS011;15333;50.010;20.020;2024-02-04T03:22:24;7.88;;;6.07;;
28007;SDS011;15333;50.010;20.020;2024-02-04T03:25:25;5.65;;;4.75;;
28007;SDS011;15333;50.010;20.020;2024-02-04T03:28:27;5.13;;;3.80;;
28007;SDS011;15333;50.010;20.020;2024-02-04T03:31:28;6.55;;;4.15;;
28007;SDS011;15333;50.010;20.020;2024-02-04T03:34:29;5.05;;;3.63;;
28007;SDS011;15333;50.010;20.020;2024-02-04T03:37:30;5.57;;;3.28;;
28007;SDS011;15333;50.010;20.020;2024-02-04T03:40:31;5.55;;;3.85;;
28007;SDS011;15333;50.010;20.020;2024-02-04T03:43:32;3.33;;;3.03;;
28007;SDS011;15333;50.010;20.020;2024-02-04T03:46:32;3.42;;;3.13;;
28007;SDS011;15333;50.010;20.020;2024-02-04T03:49:33;5.00;;;3.38;;
28007;SDS011;15333;50.010;20.020;2024-02-04T03:52:34;3.63;;;3.00;;
28007;SDS011;15333;50.010;20.020;2024-02-04T03:55:35;5.82;;;3.28;;
28007;SDS011;15333;50.010;20.020;2024-02-04T03:58:36;6.55;;;3.13;;
28007;SDS011;15333;50.010;20.020;2024-02-04T04:01:37;3.88;;;3.35;;
28007;SDS011;15333;50.010;20.020;2024-02-04T04:04:41;4.68;;;3.17;;
28007;SDS011;15333;50.010;20.020;2024-02-04T04:07:42;5.78;;;3.22;;
28007;SDS011;15333;50.010;20.020;2024-02-04T04:10:43;5.43;;;2.97;;
28007;SDS011;15333;50.010;20.020;2024-02-04T04:13:44;4.30;;;2.55;;
28007;SDS011;15333;50.010;20.020;2024-02-04T04:16:45;3.25;;;2.72;;
28007;SDS011;15333;50.010;20.020;2024-02-04T04:19:46;3.13;;;2.35;;
28007;SDS011;15333;50.010;20.020;2024-02-04T04:22:46;5.68;;;2.80;;
28007;SDS011;15333;50.010;20.020;2024-02-04T04:25:47;4.25;;;2.25;;
28007;SDS011;15333;50.010;20.020;2024-02-04T04:28:48;4.30;;;2.45;;
28007;SDS011;15333;50.010;20.020;2024-02-04T04:31:49;3.28;;;2.20;;
28007;SDS011;15333;50.010;20.020;2024-02-04T04:34:50;4.50;;;2.40;;
28007;SDS011;15333;50.010;20.020;2024-02-04T04:37:51;4.00;;;2.10;;
28007;SDS011;15333;50.010;20.020;2024-02-04T04:40:53;5.97;;;2.35;;
28007;SDS011;15333;50.010;20.020;2024-02-04T04:43:54;3.85;;;2.30;;
28007;SDS011;15333;50.010;20.020;2024-02-04T04:46:54;5.63;;;3.00;;
28007;SDS011;15333;50.010;20.020;2024-02-04T04:49:55;3.38;;;2.30;;
28007;SDS011;15333;50.010;20.020;2024-02-04T04:52:56;3.65;;;2.40;;
28007;SDS011;15333;50.010;20.020;2024-02-04T04:55:57;3.88;;;2.40;;
28007;SDS011;15333;50.010;20.020;2024-02-04T04:58:58;3.47;;;2.53;;
28007;SDS011;15333;50.010;20.020;2024-02-04T05:01:59;4.97;;;2.70;;
28007;SDS011;15333;50.010;20.020;2024-02-04T05:05:00;5.55;;;3.50;;
28007;SDS011;15333;50.010;20.020;2024-02-04T05:08:01;4.28;;;3.35;;
28007;SDS011;15333;50.010;20.020;2024-02-04T05:11:02;8.75;;;4.25;;
28007;SDS011;15333;50.010;20.020;2024-02-04T05:14:03;6.97;;;4.38;;
28007;SDS011;15333;50.010;20.020;2024-02-04T05:17:04;8.77;;;4.63;;
28007;SDS011;15333;50.010;20.020;2024-02-04T05:20:06;9.75;;;4.93;;
28007;SDS011;15333;50.010;20.020;2024-02-04T05:23:08;6.75;;;4.40;;
28007;SDS011;15333;50.010;20.020;2024-02-04T05:26:09;6.22;;;4.72;;
28007;SDS011;15333;50.010;20.020;2024-02-04T05:29:09;4.82;;;4.15;;
28007;SDS011;15333;50.010;20.020;2024-02-04T05:32:10;7.80;;;4.80;;
28007;SDS011;15333;50.010;20.020;2024-02-04T05:35:11;6.38;;;3.92;;
28007;SDS011;15333;50.010;20.020;2024-02-04T05:38:12;5.95;;;3.60;;
28007;SDS011;15333;50.010;20.020;2024-02-04T05:41:13;5.32;;;3.90;;
28007;SDS011;15333;50.010;20.020;2024-02-04T05:44:14;8.13;;;3.92;;
28007;SDS011;15333;50.010;20.020;2024-02-04T05:47:14;9.23;;;3.90;;
28007;SDS011;15333;50.010;20.020;2024-02-04T05:50:15;8.05;;;4.47;;
28007;SDS011;15333;50.010;20.020;2024-02-04T05:53:16;7.65;;;3.67;;
28007;SDS011;15333;50.010;20.020;2024-02-04T05:56:17;6.25;;;4.18;;
28007;SDS011;15333;50.010;20.020;2024-02-04T05:59:18;7.68;;;4.43;;
28007;SDS011;15333;50.010;20.020;2024-02-04T06:02:19;8.40;;;4.45;;
28007;SDS011;15333;50.010;20.020;2024-02-04T06:05:19;8.00;;;4.22;;
28007;SDS011;15333;50.010;20.020;2024-02-04T06:08:20;10.13;;;5.22;;
28007;SDS011;15333;50.010;20.020;2024-02-04T06:11:21;12.77;;;5.57;;
28007;SDS011;15333;50.010;20.020;2024-02-04T06:14:22;10.07;;;4.65;;
28007;SDS011;15333;50.010;20.020;2024-02-04T06:17:23;10.30;;;4.88;;
28007;SDS011;15333;50.010;20.020;2024-02-04T06:20:24;9.05;;;4.32;;
28007;SDS011;15333;50.010;20.020;2024-02-04T06:23:24;5.82;;;4.78;;
28007;SDS011;15333;50.010;20.020;2024-02-04T06:26:25;7.80;;;4.57;;
28007;SDS011;15333;50.010;20.020;2024-02-04T06:29:26;5.93;;;4.18;;
28007;SDS011;15333;50.010;20.020;2024-02-04T06:32:27;7.93;;;4.38;;
28007;SDS011;15333;50.010;20.020;2024-02-04T06:35:28;6.00;;;3.90;;
28007;SDS011;15333;50.010;20.020;2024-02-04T06:38:29;4.97;;;4.30;;
28007;SDS011;15333;50.010;20.020;2024-02-04T06:41:29;6.70;;;5.13;;
28007;SDS011;15333;50.010;20.020;2024-02-04T06:44:30;8.10;;;5.78;;
28007;SDS011;15333;50.010;20.020;2024-02-04T06:47:31;7.47;;;5.78;;
28007;SDS011;15333;50.010;20.020;2024-02-04T06:50:32;8.40;;;6.13;;
28007;SDS011;15333;50.010;20.020;2024-02-04T06:53:33;8.73;;;6.53;;
28007;SDS011;15333;50.010;20.020;2024-02-04T06:56:34;7.45;;;5.85;;
28007;SDS011;15333;50.010;20.020;2024-02-04T06:59:34;10.95;;;7.00;;
28007;SDS011;15333;50.010;20.020;2024-02-04T07:02:36;9.63;;;6.68;;
28007;SDS011;15333;50.010;20.020;2024-02-04T07:05:37;9.10;;;6.93;;
28007;SDS011;15333;50.010;20.020;2024-02-04T07:08:38;9.13;;;6.60;;
28007;SDS011;15333;50.010;20.020;2024-02-04T07:11:39;9.80;;;6.28;;
28007;SDS011;15333;50.010;20.020;2024-02-04T07:14:40;9.63;;;5.85;;
28007;SDS011;15333;50.010;20.020;2024-02-04T07:17:40;6.88;;;5.30;;
28007;SDS011;15333;50.010;20.020;2024-02-04T07:20:41;6.95;;;5.18;;
28007;SDS011;15333;50.010;20.020;2024-02-04T07:23:42;8.88;;;4.53;;
28007;SDS011;15333;50.010;20.020;2024-02-04T07:26:43;8.00;;;4.07;;
28007;SDS011;15333;50.010;20.020;2024-02-04T07:29:44;6.97;;;4.45;;
28007;SDS011;15333;50.010;20.020;2024-02-04T07:32:45;5.75;;;4.10;;
28007;SDS011;15333;50.010;20.020;2024-02-04T07:35:46;7.18;;;3.70;;
28007;SDS011;15333;50.010;20.020;2024-02-04T07:38:47;6.18;;;3.55;;
28007;SDS011;15333;50.010;20.020;2024-02-04T07:41:48;4.57;;;2.97;;
28007;SDS011;15333;50.010;20.020;2024-02-04T07:44:49;5.70;;;3.30;;
28007;SDS011;15333;50.010;20.020;2024-02-04T07:47:49;4.95;;;2.90;;
28007;SDS011;15333;50.010;20.020;2024-02-04T07:50:50;6.25;;;3.35;;
28007;SDS011;15333;50.010;20.020;2024-02-04T07:53:51;5.53;;;3.33;;
28007;SDS011;15333;50.010;20.020;2024-02-04T07:56:52;5.18;;;2.75;;
28007;SDS011;15333;50.010;20.020;2024-02-04T07:59:53;6.13;;;2.92;;
28007;SDS011;15333;50.010;20.020;2024-02-04T08:02:54;5.88;;;2.70;;
28007;SDS011;15333;50.010;20.020;2024-02-04T08:05:55;6.40;;;2.58;;
28007;SDS011;15333;50.010;20.020;2024-02-04T08:08:56;4.63;;;2.42;;
28007;SDS011;15333;50.010;20.020;2024-02-04T08:11:57;5.97;;;2.55;;
28007;SDS011;15333;50.010;20.020;2024-02-04T08:14:58;6.05;;;1.92;;
28007;SDS011;15333;50.010;20.020;2024-02-04T08:17:59;4.88;;;1.90;;
28007;SDS011;15333;50.010;20.020;2024-02-04T08:21:00;3.42;;;1.58;;
28007;SDS011;15333;50.010;20.020;2024-02-04T08:24:01;4.47;;;2.20;;
28007;SDS011;15333;50.010;20.020;2024-02-04T08:27:02;6.70;;;2.13;;
28007;SDS011;15333;50.010;20.020;2024-02-04T08:30:04;4.53;;;1.75;;
28007;SDS011;15333;50.010;20.020;2024-02-04T08:33:06;6.10;;;2.30;;
28007;SDS011;15333;50.010;20.020;2024-02-04T08:36:07;5.93;;;2.00;;
28007;SDS011;15333;50.010;20.020;2024-02-04T08:39:10;5.60;;;1.88;;
28007;SDS011;15333;50.010;20.020;2024-02-04T08:42:11;6.50;;;2.00;;
28007;SDS011;15333;50.010;20.020;2024-02-04T08:45:12;7.55;;;1.92;;
28007;SDS011;15333;50.010;20.020;2024-02-04T08:48:13;6.65;;;1.90;;
28007;SDS011;15333;50.010;20.020;2024-02-04T08:51:14;7.18;;;2.28;;
28007;SDS011;15333;50.010;20.020;2024-02-04T08:54:16;7.38;;;2.47;;
28007;SDS011;15333;50.010;20.020;2024-02-04T08:57:18;7.10;;;3.03;;
28007;SDS011;15333;50.010;20.020;2024-02-04T09:00:19;9.48;;;3.05;;
28007;SDS011;15333;50.010;20.020;2024-02-04T09:03:20;7.88;;;2.58;;
28007;SDS011;15333;50.010;20.020;2024-02-04T09:06:21;5.40;;;3.05;;
28007;SDS011;15333;50.010;20.020;2024-02-04T09:09:22;9.02;;;3.90;;
28007;SDS011;15333;50.010;20.020;2024-02-04T09:12:23;8.13;;;3.58;;
28007;SDS011;15333;50.010;20.020;2024-02-04T09:15:24;10.25;;;3.65;;
28007;SDS011;15333;50.010;20.020;2024-02-04T09:18:24;9.52;;;4.13;;
28007;SDS011;15333;50.010;20.020;2024-02-04T09:21:25;6.78;;;3.92;;
28007;SDS011;15333;50.010;20.020;2024-02-04T09:24:27;6.28;;;3.55;;
28007;SDS011;15333;50.010;20.020;2024-02-04T09:27:28;7.43;;;3.65;;
28007;SDS011;15333;50.010;20.020;2024-02-04T09:30:29;7.05;;;3.33;;
28007;SDS011;15333;50.010;20.020;2024-02-04T09:33:30;10.32;;;3.70;;
28007;SDS011;15333;50.010;20.020;2024-02-04T09:36:30;8.13;;;3.33;;
28007;SDS011;15333;50.010;20.020;2024-02-04T09:39:32;11.23;;;3.53;;
28007;SDS011;15333;50.010;20.020;2024-02-04T09:42:32;9.60;;;3.28;;
28007;SDS011;15333;50.010;20.020;2024-02-04T09:45:34;6.88;;;3.28;;
28007;SDS011;15333;50.010;20.020;2024-02-04T09:48:35;5.90;;;2.88;;
28007;SDS011;15333;50.010;20.020;2024-02-04T09:51:39;8.52;;;3.92;;
28007;SDS011;15333;50.010;20.020;2024-02-04T09:54:44;8.40;;;3.15;;
28007;SDS011;15333;50.010;20.020;2024-02-04T09:57:48;8.23;;;2.92;;
28007;SDS011;15333;50.010;20.020;2024-02-04T10:00:49;12.65;;;3.70;;
28007;SDS011;15333;50.010;20.020;2024-02-04T10:03:51;9.13;;;3.50;;
28007;SDS011;15333;50.010;20.020;2024-02-04T10:06:52;15.50;;;5.78;;
28007;SDS011;15333;50.010;20.020;2024-02-04T10:09:53;10.75;;;4.50;;
28007;SDS011;15333;50.010;20.020;2024-02-04T10:12:54;9.13;;;4.90;;
28007;SDS011;15333;50.010;20.020;2024-02-04T10:15:55;10.05;;;4.55;;
28007;SDS011;15333;50.010;20.020;2024-02-04T10:18:56;9.35;;;4.65;;
28007;SDS011;15333;50.010;20.020;2024-02-04T10:22:03;9.32;;;4.78;;
28007;SDS011;15333;50.010;20.020;2024-02-04T10:25:10;10.50;;;5.13;;
28007;SDS011;15333;50.010;20.020;2024-02-04T10:28:15;10.38;;;5.32;;
28007;SDS011;15333;50.010;20.020;2024-02-04T10:31:16;13.13;;;5.70;;
28007;SDS011;15333;50.010;20.020;2024-02-04T10:34:17;8.60;;;4.55;;
28007;SDS011;15333;50.010;20.020;2024-02-04T10:37:18;11.77;;;4.90;;
28007;SDS011;15333;50.010;20.020;2024-02-04T10:40:19;12.98;;;5.40;;
28007;SDS011;15333;50.010;20.020;2024-02-04T10:43:20;11.23;;;4.85;;
28007;SDS011;15333;50.010;20.020;2024-02-04T10:46:22;9.93;;;4.65;;
28007;SDS011;15333;50.010;20.020;2024-02-04T10:49:23;11.10;;;4.05;;
28007;SDS011;15333;50.010;20.020;2024-02-04T10:52:27;11.38;;;4.05;;
28007;SDS011;15333;50.010;20.020;2024-02-04T10:55:28;10.38;;;4.43;;
28007;SDS011;15333;50.010;20.020;2024-02-04T10:58:31;10.75;;;4.97;;
28007;SDS011;15333;50.010;20.020;2024-02-04T11:01:34;8.65;;;3.55;;
28007;SDS011;15333;50.010;20.020;2024-02-04T11:04:37;7.57;;;4.15;;
28007;SDS011;15333;50.010;20.020;2024-02-04T11:07:39;8.57;;;3.60;;
28007;SDS011;15333;50.010;20.020;2024-02-04T11:10:41;10.77;;;3.88;;
28007;SDS011;15333;50.010;20.020;2024-02-04T11:13:42;9.00;;;3.92;;
28007;SDS011;15333;50.010;20.020;2024-02-04T11:26:12;10.18;;;4.43;;
28007;SDS011;15333;50.010;20.020;2024-02-04T11:29:16;10.75;;;4.28;;
28007;SDS011;15333;50.010;20.020;2024-02-04T11:32:18;9.73;;;4.05;;
28007;SDS011;15333;50.010;20.020;2024-02-04T11:35:19;9.77;;;4.20;;
28007;SDS011;15333;50.010;20.020;2024-02-04T11:38:21;9.18;;;4.85;;
28007;SDS011;15333;50.010;20.020;2024-02-04T11:41:23;12.43;;;5.53;;
28007;SDS011;15333;50.010;20.020;2024-02-04T11:44:25;11.35;;;5.18;;
28007;SDS011;15333;50.010;20.020;2024-02-04T11:47:27;8.02;;;5.07;;
28007;SDS011;15333;50.010;20.020;2024-02-04T11:50:28;9.10;;;4.65;;
28007;SDS011;15333;50.010;20.020;2024-02-04T11:53:31;8.70;;;5.00;;
28007;SDS011;15333;50.010;20.020;2024-02-04T11:56:33;9.77;;;4.40;;
28007;SDS011;15333;50.010;20.020;2024-02-04T11:59:36;10.48;;;4.60;;
28007;SDS011;15333;50.010;20.020;2024-02-04T12:02:37;14.70;;;5.38;;
28007;SDS011;15333;50.010;20.020;2024-02-04T12:05:38;9.73;;;5.20;;
28007;SDS011;15333;50.010;20.020;2024-02-04T12:08:39;8.05;;;5.00;;
28007;SDS011;15333;50.010;20.020;2024-02-04T12:11:40;9.35;;;5.43;;
28007;SDS011;15333;50.010;20.020;2024-02-04T12:14:42;10.63;;;5.15;;
28007;SDS011;15333;50.010;20.020;2024-02-04T12:17:43;9.70;;;5.38;;
28007;SDS011;15333;50.010;20.020;2024-02-04T12:20:44;7.80;;;5.22;;
28007;SDS011;15333;50.010;20.020;2024-02-04T12:23:48;12.32;;;6.15;;
28007;SDS011;15333;50.010;20.020;2024-02-04T12:26:49;10.77;;;5.82;;
28007;SDS011;15333;50.010;20.020;2024-02-04T12:29:53;14.32;;;6.68;;
28007;SDS011;15333;50.010;20.020;2024-02-04T12:33:00;11.07;;;6.70;;
28007;SDS011;15333;50.010;20.020;2024-02-04T12:36:03;13.75;;;7.22;;
28007;SDS011;15333;50.010;20.020;2024-02-04T12:39:03;14.57;;;7.90;;
28007;SDS011;15333;50.010;20.020;2024-02-04T12:42:05;10.93;;;7.88;;
28007;SDS011;15333;50.010;20.020;2024-02-04T12:45:06;14.85;;;8.80;;
28007;SDS011;15333;50.010;20.020;2024-02-04T12:48:09;13.07;;;7.93;;
28007;SDS011;15333;50.010;20.020;2024-02-04T12:51:10;15.45;;;9.25;;
28007;SDS011;15333;50.010;20.020;2024-02-04T12:54:12;13.18;;;8.43;;
28007;SDS011;15333;50.010;20.020;2024-02-04T12:57:22;17.20;;;9.60;;
28007;SDS011;15333;50.010;20.020;2024-02-04T13:00:24;18.50;;;10.10;;
28007;SDS011;15333;50.010;20.020;2024-02-04T13:03:25;15.38;;;9.00;;
28007;SDS011;15333;50.010;20.020;2024-02-04T13:06:26;14.45;;;9.48;;
28007;SDS011;15333;50.010;20.020;2024-02-04T13:09:27;14.52;;;9.98;;
28007;SDS011;15333;50.010;20.020;2024-02-04T13:12:28;16.73;;;9.95;;
28007;SDS011;15333;50.010;20.020;2024-02-04T13:15:30;15.13;;;9.15;;
28007;SDS011;15333;50.010;20.020;2024-02-04T13:18:32;18.65;;;10.32;;
28007;SDS011;15333;50.010;20.020;2024-02-04T13:21:33;16.17;;;10.27;;
28007;SDS011;15333;50.010;20.020;2024-02-04T13:24:34;18.17;;;9.93;;
28007;SDS011;15333;50.010;20.020;2024-02-04T13:27:35;20.20;;;10.93;;
28007;SDS011;15333;50.010;20.020;2024-02-04T13:30:36;17.00;;;11.45;;
28007;SDS011;15333;50.010;20.020;2024-02-04T13:33:40;18.13;;;11.82;;
28007;SDS011;15333;50.010;20.020;2024-02-04T13:36:42;19.95;;;11.20;;
28007;SDS011;15333;50.010;20.020;2024-02-04T13:39:43;16.63;;;11.85;;
28007;SDS011;15333;50.010;20.020;2024-02-04T13:42:45;15.90;;;11.77;;
28007;SDS011;15333;50.010;20.020;2024-02-04T13:45:47;18.17;;;12.00;;
28007;SDS011;15333;50.010;20.020;2024-02-04T13:48:48;21.00;;;12.32;;
28007;SDS011;15333;50.010;20.020;2024-02-04T13:51:49;15.18;;;10.95;;
28007;SDS011;15333;50.010;20.020;2024-02-04T13:54:50;16.40;;;11.50;;
28007;SDS011;15333;50.010;20.020;2024-02-04T13:57:50;14.40;;;11.27;;
28007;SDS011;15333;50.010;20.020;2024-02-04T14:00:51;18.10;;;12.27;;
28007;SDS011;15333;50.010;20.020;2024-02-04T14:03:52;20.50;;;12.70;;
28007;SDS011;15333;50.010;20.020;2024-02-04T14:06:53;19.92;;;12.93;;
28007;SDS011;15333;50.010;20.020;2024-02-04T14:09:54;17.30;;;11.90;;
28007;SDS011;15333;50.010;20.020;2024-02-04T14:12:55;19.35;;;11.75;;
28007;SDS011;15333;50.010;20.020;2024-02-04T14:15:56;17.70;;;12.65;;
28007;SDS011;15333;50.010;20.020;2024-02-04T14:18:57;15.25;;;10.10;;
28007;SDS011;15333;50.010;20.020;2024-02-04T14:21:57;17.58;;;10.27;;
28007;SDS011;15333;50.010;20.020;2024-02-04T14:24:58;13.48;;;8.00;;
28007;SDS011;15333;50.010;20.020;2024-02-04T14:28:00;8.70;;;6.07;;
28007;SDS011;15333;50.010;20.020;2024-02-04T14:31:01;10.10;;;6.18;;
28007;SDS011;15333;50.010;20.020;2024-02-04T14:34:02;12.07;;;6.30;;
28007;SDS011;15333;50.010;20.020;2024-02-04T14:37:04;9.15;;;5.85;;
28007;SDS011;15333;50.010;20.020;2024-02-04T14:40:05;8.25;;;5.72;;
28007;SDS011;15333;50.010;20.020;2024-02-04T14:43:07;9.50;;;5.55;;
28007;SDS011;15333;50.010;20.020;2024-02-04T14:46:08;9.15;;;5.53;;
28007;SDS011;15333;50.010;20.020;2024-02-04T14:49:10;7.63;;;5.13;;
28007;SDS011;15333;50.010;20.020;2024-02-04T14:52:10;8.15;;;4.93;;
28007;SDS011;15333;50.010;20.020;2024-02-04T14:55:12;6.32;;;4.15;;
28007;SDS011;15333;50.010;20.020;2024-02-04T14:58:12;8.63;;;4.45;;
28007;SDS011;15333;50.010;20.020;2024-02-04T15:01:13;5.72;;;4.22;;
28007;SDS011;15333;50.010;20.020;2024-02-04T15:04:14;8.75;;;4.47;;
28007;SDS011;15333;50.010;20.020;2024-02-04T15:07:15;6.20;;;4.38;;
28007;SDS011;15333;50.010;20.020;2024-02-04T15:10:16;5.28;;;3.40;;
28007;SDS011;15333;50.010;20.020;2024-02-04T15:13:17;6.00;;;3.25;;
28007;SDS011;15333;50.010;20.020;2024-02-04T15:16:18;5.78;;;3.80;;
28007;SDS011;15333;50.010;20.020;2024-02-04T15:19:20;5.63;;;3.50;;
28007;SDS011;15333;50.010;20.020;2024-02-04T15:22:21;7.28;;;4.20;;
28007;SDS011;15333;50.010;20.020;2024-02-04T15:25:22;6.68;;;4.32;;
28007;SDS011;15333;50.010;20.020;2024-02-04T15:28:23;8.18;;;4.68;;
28007;SDS011;15333;50.010;20.020;2024-02-04T15:31:25;7.50;;;4.70;;
28007;SDS011;15333;50.010;20.020;2024-02-04T15:34:28;9.75;;;5.22;;
28007;SDS011;15333;50.010;20.020;2024-02-04T15:37:32;7.55;;;5.05;;
28007;SDS011;15333;50.010;20.020;2024-02-04T15:40:35;11.10;;;5.47;;
28007;SDS011;15333;50.010;20.020;2024-02-04T15:43:36;12.05;;;5.70;;
28007;SDS011;15333;50.010;20.020;2024-02-04T15:46:36;11.60;;;5.85;;
28007;SDS011;15333;50.010;20.020;2024-02-04T15:49:38;9.40;;;5.47;;
28007;SDS011;15333;50.010;20.020;2024-02-04T15:52:41;11.05;;;6.10;;
28007;SDS011;15333;50.010;20.020;2024-02-04T15:55:42;12.23;;;6.60;;
28007;SDS011;15333;50.010;20.020;2024-02-04T15:58:43;10.80;;;7.25;;
28007;SDS011;15333;50.010;20.020;2024-02-04T16:01:45;12.93;;;7.65;;
28007;SDS011;15333;50.010;20.020;2024-02-04T16:04:46;15.48;;;8.55;;
28007;SDS011;15333;50.010;20.020;2024-02-04T16:07:47;18.85;;;9.52;;
28007;SDS011;15333;50.010;20.020;2024-02-04T16:10:48;15.73;;;8.75;;
28007;SDS011;15333;50.010;20.020;2024-02-04T16:13:55;15.63;;;9.07;;
28007;SDS011;15333;50.010;20.020;2024-02-04T16:17:01;16.00;;;8.68;;
28007;SDS011;15333;50.010;20.020;2024-02-04T16:20:06;13.95;;;8.82;;
28007;SDS011;15333;50.010;20.020;2024-02-04T16:23:07;14.55;;;9.48;;
28007;SDS011;15333;50.010;20.020;2024-02-04T16:26:08;15.05;;;10.13;;
28007;SDS011;15333;50.010;20.020;2024-02-04T16:29:09;17.27;;;10.30;;
28007;SDS011;15333;50.010;20.020;2024-02-04T16:32:10;18.75;;;10.25;;
28007;SDS011;15333;50.010;20.020;2024-02-04T16:35:14;17.70;;;10.88;;
28007;SDS011;15333;50.010;20.020;2024-02-04T16:38:15;17.00;;;9.80;;
28007;SDS011;15333;50.010;20.020;2024-02-04T16:41:16;17.45;;;10.25;;
28007;SDS011;15333;50.010;20.020;2024-02-04T16:44:17;14.90;;;9.43;;
28007;SDS011;15333;50.010;20.020;2024-02-04T16:47:18;15.82;;;10.32;;
28007;SDS011;15333;50.010;20.020;2024-02-04T16:50:19;13.20;;;8.75;;
28007;SDS011;15333;50.010;20.020;2024-02-04T16:53:20;12.77;;;8.38;;
28007;SDS011;15333;50.010;20.020;2024-02-04T16:56:21;11.57;;;6.85;;
28007;SDS011;15333;50.010;20.020;2024-02-04T16:59:25;11.77;;;6.93;;
28007;SDS011;15333;50.010;20.020;2024-02-04T17:02:26;9.63;;;5.93;;
28007;SDS011;15333;50.010;20.020;2024-02-04T17:05:27;10.90;;;6.35;;
28007;SDS011;15333;50.010;20.020;2024-02-04T17:08:28;9.93;;;6.20;;
28007;SDS011;15333;50.010;20.020;2024-02-04T17:11:29;11.93;;;7.13;;
28007;SDS011;15333;50.010;20.020;2024-02-04T17:14:30;11.15;;;6.18;;
28007;SDS011;15333;50.010;20.020;2024-02-04T17:17:33;9.85;;;6.35;;
28007;SDS011;15333;50.010;20.020;2024-02-04T17:21:07;12.27;;;6.20;;
28007;SDS011;15333;50.010;20.020;2024-02-04T17:24:06;9.83;;;5.83;;
28007;SDS011;15333;50.010;20.020;2024-02-04T17:27:15;7.88;;;5.07;;
28007;SDS011;15333;50.010;20.020;2024-02-04T17:30:17;8.13;;;4.65;;
28007;SDS011;15333;50.010;20.020;2024-02-04T17:33:19;7.68;;;4.72;;
28007;SDS011;15333;50.010;20.020;2024-02-04T17:36:20;7.50;;;3.95;;
28007;SDS011;15333;50.010;20.020;2024-02-04T17:39:21;6.05;;;3.83;;
28007;SDS011;15333;50.010;20.020;2024-02-04T17:42:21;9.07;;;4.57;;
28007;SDS011;15333;50.010;20.020;2024-02-04T17:45:23;7.03;;;4.05;;
28007;SDS011;15333;50.010;20.020;2024-02-04T17:48:24;5.53;;;3.30;;
28007;SDS011;15333;50.010;20.020;2024-02-04T17:51:25;6.28;;;3.92;;
28007;SDS011;15333;50.010;20.020;2024-02-04T17:54:26;7.10;;;4.10;;
28007;SDS011;15333;50.010;20.020;2024-02-04T17:57:27;7.95;;;4.80;;
28007;SDS011;15333;50.010;20.020;2024-02-04T18:00:28;8.05;;;5.00;;
28007;SDS011;15333;50.010;20.020;2024-02-04T18:03:29;8.32;;;5.45;;